METAR Data
IDs: Format: Raw Decoded Include TAF

Data at: 1253 UTC 26 Feb 2021

LEBB 261230Z 28005KT 9999 SCT019 BKN035 13/10 Q1033 NOSIG